createdAt,value
2023-02-03T00:01:54.324Z,3.20
2023-02-03T00:04:23.793Z,3.63
2023-02-03T00:06:53.627Z,4.70
2023-02-03T00:09:23.313Z,4.63
2023-02-03T00:11:55.318Z,3.70
2023-02-03T00:14:24.794Z,5.10
2023-02-03T00:16:54.231Z,4.83
2023-02-03T00:19:23.658Z,5.83
2023-02-03T00:21:53.036Z,5.47
2023-02-03T00:24:23.965Z,6.60
2023-02-03T00:26:55.957Z,5.70
2023-02-03T00:29:26.162Z,7.00
2023-02-03T00:31:56.297Z,5.07
2023-02-03T00:34:25.765Z,5.40
2023-02-03T00:36:55.161Z,7.67
2023-02-03T00:39:24.681Z,6.37
2023-02-03T00:41:56.674Z,4.50
2023-02-03T00:44:26.143Z,5.47
2023-02-03T00:46:55.520Z,6.40
2023-02-03T00:49:24.950Z,7.17
2023-02-03T00:51:54.556Z,7.90
2023-02-03T00:54:24.023Z,5.60
2023-02-03T00:56:56.075Z,7.33
2023-02-03T00:59:25.490Z,4.90
2023-02-03T01:01:54.884Z,4.97
2023-02-03T01:04:24.345Z,7.53
2023-02-03T01:06:56.269Z,3.63
2023-02-03T01:09:25.771Z,5.87
2023-02-03T01:11:57.758Z,7.83
2023-02-03T01:14:27.158Z,9.13
2023-02-03T01:16:56.596Z,4.60
2023-02-03T01:19:27.223Z,11.23
2023-02-03T01:21:56.701Z,8.13
2023-02-03T01:24:26.084Z,8.33
2023-02-03T01:26:58.076Z,10.13
2023-02-03T01:29:27.629Z,10.50
2023-02-03T01:31:57.161Z,7.63
2023-02-03T01:34:26.710Z,8.80
2023-02-03T01:36:56.159Z,11.40
2023-02-03T01:39:26.318Z,10.00
2023-02-03T01:41:59.049Z,6.90
2023-02-03T01:44:42.303Z,8.83
2023-02-03T01:47:20.424Z,5.67
2023-02-03T01:49:52.981Z,5.43
2023-02-03T01:52:22.510Z,8.00
2023-02-03T01:54:53.005Z,8.07
2023-02-03T01:57:27.591Z,5.33
2023-02-03T01:59:58.724Z,7.77
2023-02-03T02:02:28.254Z,5.47
2023-02-03T02:05:04.817Z,5.80
2023-02-03T02:07:34.765Z,4.63
2023-02-03T02:10:04.317Z,5.27
2023-02-03T02:12:36.289Z,5.63
2023-02-03T02:15:05.827Z,5.37
2023-02-03T02:17:59.053Z,4.97
2023-02-03T02:21:02.946Z,6.20
2023-02-03T02:23:44.667Z,5.07
2023-02-03T02:26:38.159Z,3.10
2023-02-03T02:29:35.007Z,5.87
2023-02-03T02:32:14.132Z,5.23
2023-02-03T02:34:52.113Z,5.10
2023-02-03T02:37:27.536Z,4.43
2023-02-03T02:40:00.473Z,5.07
2023-02-03T02:42:35.533Z,6.10
2023-02-03T02:45:10.942Z,6.40
2023-02-03T02:47:43.232Z,4.30
2023-02-03T02:50:17.471Z,5.23
2023-02-03T02:52:49.006Z,3.40
2023-02-03T02:55:24.734Z,2.03
2023-02-03T02:57:54.900Z,4.10
2023-02-03T03:00:24.960Z,3.67
2023-02-03T03:02:57.610Z,2.70
2023-02-03T03:05:27.420Z,4.50
2023-02-03T03:07:59.587Z,4.77
2023-02-03T03:10:30.882Z,3.50
2023-02-03T03:13:03.534Z,3.70
2023-02-03T03:15:34.694Z,3.83
2023-02-03T03:18:09.587Z,6.03
2023-02-03T03:20:40.498Z,4.00
2023-02-03T03:23:10.851Z,3.40
2023-02-03T03:25:43.846Z,3.33
2023-02-03T03:28:16.132Z,2.63
2023-02-03T03:30:45.811Z,3.30
2023-02-03T03:33:17.842Z,1.70
2023-02-03T03:35:52.103Z,3.07
2023-02-03T03:38:24.785Z,2.70
2023-02-03T03:40:57.376Z,3.10
2023-02-03T03:43:29.653Z,3.50
2023-02-03T03:46:03.468Z,2.07
2023-02-03T03:48:37.860Z,2.50
2023-02-03T03:51:11.325Z,2.57
2023-02-03T03:53:42.776Z,3.43
2023-02-03T03:56:16.799Z,2.40
2023-02-03T03:58:48.132Z,2.43
2023-02-03T04:01:18.917Z,4.07
2023-02-03T04:03:52.979Z,3.50
2023-02-03T04:06:22.539Z,3.93
2023-02-03T04:08:51.965Z,3.07
2023-02-03T04:11:33.695Z,2.67
2023-02-03T04:14:03.084Z,3.90
2023-02-03T04:16:32.669Z,2.17
2023-02-03T04:19:06.939Z,2.13
2023-02-03T04:21:37.573Z,3.13
2023-02-03T04:24:07.466Z,3.40
2023-02-03T04:26:36.844Z,3.60
2023-02-03T04:29:06.553Z,3.03
2023-02-03T04:31:36.094Z,4.00
2023-02-03T04:34:08.258Z,4.50
2023-02-03T04:36:37.651Z,4.07
2023-02-03T04:39:07.224Z,2.47
2023-02-03T04:41:36.695Z,3.93
2023-02-03T04:44:06.268Z,3.80
2023-02-03T04:46:35.702Z,3.50
2023-02-03T04:49:09.848Z,3.97
2023-02-03T04:51:39.265Z,3.07
2023-02-03T04:54:08.753Z,3.70
2023-02-03T04:56:38.197Z,4.50
2023-02-03T04:59:07.626Z,2.80
2023-02-03T05:01:37.268Z,2.77
2023-02-03T05:04:09.313Z,3.70
2023-02-03T05:06:38.725Z,5.43
2023-02-03T05:09:09.028Z,5.40
2023-02-03T05:11:38.534Z,5.00
2023-02-03T05:14:08.190Z,4.27
2023-02-03T05:16:37.642Z,6.07
2023-02-03T05:19:09.824Z,3.60
2023-02-03T05:21:39.243Z,4.37
2023-02-03T05:24:09.584Z,4.60
2023-02-03T05:26:39.085Z,5.40
2023-02-03T05:29:08.589Z,4.93
2023-02-03T05:31:38.068Z,5.63
2023-02-03T05:34:10.265Z,5.10
2023-02-03T05:36:39.713Z,5.37
2023-02-03T05:39:09.128Z,5.80
2023-02-03T05:41:51.030Z,2.93
2023-02-03T05:44:20.514Z,2.67
2023-02-03T05:46:49.942Z,2.50
2023-02-03T05:49:23.335Z,4.67
2023-02-03T05:51:53.845Z,4.30
2023-02-03T05:54:23.447Z,3.00
2023-02-03T05:56:52.946Z,4.70
2023-02-03T05:59:22.500Z,4.33
2023-02-03T06:01:51.868Z,2.90
2023-02-03T06:04:24.041Z,2.97
2023-02-03T06:06:53.516Z,2.20
2023-02-03T06:09:22.926Z,4.10
2023-02-03T06:11:52.392Z,3.97
2023-02-03T06:14:21.818Z,3.07
2023-02-03T06:16:51.323Z,4.67
2023-02-03T06:19:23.369Z,3.20
2023-02-03T06:21:52.729Z,4.80
2023-02-03T06:24:22.137Z,3.23
2023-02-03T06:26:51.511Z,4.27
2023-02-03T06:29:21.060Z,2.33
2023-02-03T06:31:50.633Z,4.50
2023-02-03T06:34:22.684Z,4.43
2023-02-03T06:36:52.137Z,4.67
2023-02-03T06:39:21.505Z,2.60
2023-02-03T06:41:51.793Z,3.73
2023-02-03T06:44:21.568Z,3.20
2023-02-03T06:46:50.985Z,2.90
2023-02-03T06:49:23.005Z,3.50
2023-02-03T06:51:52.490Z,2.50
2023-02-03T06:54:21.960Z,4.83
2023-02-03T06:56:51.366Z,4.00
2023-02-03T06:59:20.742Z,5.87
2023-02-03T07:01:50.251Z,4.37
2023-02-03T07:04:19.897Z,4.00
2023-02-03T07:06:51.982Z,2.97
2023-02-03T07:09:21.360Z,3.80
2023-02-03T07:11:50.786Z,2.70
2023-02-03T07:14:20.238Z,2.63
2023-02-03T07:16:49.615Z,4.83
2023-02-03T07:19:19.043Z,3.47
2023-02-03T07:21:48.847Z,2.50
2023-02-03T07:24:21.104Z,3.67
2023-02-03T07:26:50.621Z,3.00
2023-02-03T07:29:20.067Z,3.33
2023-02-03T07:31:49.661Z,3.80
2023-02-03T07:34:19.087Z,3.57
2023-02-03T07:36:48.521Z,4.10
2023-02-03T07:39:20.530Z,2.53
2023-02-03T07:41:49.892Z,2.70
2023-02-03T07:44:19.269Z,4.20
2023-02-03T07:46:48.755Z,2.77
2023-02-03T07:49:18.139Z,3.70
2023-02-03T07:51:47.630Z,3.83
2023-02-03T07:54:17.521Z,2.70
2023-02-03T07:56:49.486Z,2.43
2023-02-03T07:59:19.563Z,3.10
2023-02-03T08:01:49.080Z,2.77
2023-02-03T08:04:18.483Z,2.30
2023-02-03T08:06:47.922Z,2.13
2023-02-03T08:09:17.312Z,1.73
2023-02-03T08:11:49.292Z,2.33
2023-02-03T08:14:18.666Z,2.37
2023-02-03T08:16:48.297Z,2.13
2023-02-03T08:19:17.853Z,2.63
2023-02-03T08:21:47.252Z,3.00
2023-02-03T08:24:16.685Z,3.83
2023-02-03T08:26:48.689Z,3.47
2023-02-03T08:29:18.648Z,4.50
2023-02-03T08:31:48.199Z,4.10
2023-02-03T08:34:17.636Z,3.57
2023-02-03T08:36:47.043Z,4.77
2023-02-03T08:39:16.463Z,4.10
2023-02-03T08:41:45.893Z,5.30
2023-02-03T08:44:18.654Z,4.87
2023-02-03T08:46:48.334Z,5.20
2023-02-03T08:49:17.809Z,5.77
2023-02-03T08:51:47.437Z,7.23
2023-02-03T08:54:17.173Z,6.53
2023-02-03T08:56:47.838Z,5.60
2023-02-03T08:59:20.358Z,5.20
2023-02-03T09:01:49.834Z,5.80
2023-02-03T09:04:24.697Z,4.70
2023-02-03T09:06:54.519Z,4.37
2023-02-03T09:09:25.659Z,4.87
2023-02-03T09:11:56.994Z,5.53
2023-02-03T09:14:29.215Z,4.47
2023-02-03T09:16:58.931Z,4.70
2023-02-03T09:19:28.404Z,6.57
2023-02-03T09:21:57.871Z,5.80
2023-02-03T09:24:27.479Z,6.57
2023-02-03T09:26:56.855Z,6.40
2023-02-03T09:29:28.854Z,5.33
2023-02-03T09:31:58.329Z,4.10
2023-02-03T09:34:27.703Z,5.93
2023-02-03T09:36:57.139Z,5.23
2023-02-03T09:39:26.623Z,7.60
2023-02-03T09:42:07.409Z,5.47
2023-02-03T09:44:46.245Z,6.00
2023-02-03T09:47:18.011Z,5.67
2023-02-03T09:49:50.862Z,6.60
2023-02-03T09:52:22.756Z,6.73
2023-02-03T09:54:56.764Z,5.97
2023-02-03T09:57:27.898Z,6.20
2023-02-03T10:00:02.140Z,7.30
2023-02-03T10:02:48.770Z,7.00
2023-02-03T10:05:23.515Z,7.10
2023-02-03T10:07:59.950Z,6.60
2023-02-03T10:10:37.469Z,7.97
2023-02-03T10:13:31.051Z,6.57
2023-02-03T10:16:25.872Z,8.10
2023-02-03T10:18:57.260Z,6.93
2023-02-03T10:21:36.441Z,6.30
2023-02-03T10:24:07.356Z,5.77
2023-02-03T10:26:36.749Z,5.87
2023-02-03T10:29:09.355Z,7.50
2023-02-03T10:31:41.688Z,7.33
2023-02-03T10:34:13.232Z,6.40
2023-02-03T10:36:52.040Z,6.00
2023-02-03T10:39:31.898Z,6.80
2023-02-03T10:42:01.666Z,7.20
2023-02-03T10:44:38.993Z,9.43
2023-02-03T10:47:24.640Z,6.57
2023-02-03T10:49:55.076Z,8.33
2023-02-03T10:52:30.128Z,8.17
2023-02-03T10:54:59.918Z,5.90
2023-02-03T10:57:31.627Z,13.20
2023-02-03T11:00:24.198Z,6.07
2023-02-03T11:03:23.706Z,6.27
2023-02-03T11:06:06.924Z,8.57
2023-02-03T11:08:37.317Z,5.30
2023-02-03T11:11:08.963Z,7.63
2023-02-03T11:13:38.711Z,5.63
2023-02-03T11:16:09.892Z,7.23
2023-02-03T11:18:45.100Z,5.77
2023-02-03T11:21:19.978Z,6.03
2023-02-03T11:23:52.628Z,4.83
2023-02-03T11:26:24.338Z,5.93
2023-02-03T11:28:55.683Z,6.90
2023-02-03T11:31:27.578Z,6.70
2023-02-03T11:34:01.766Z,6.30
2023-02-03T11:36:33.274Z,5.70
2023-02-03T11:39:20.772Z,6.33
2023-02-03T11:41:51.134Z,6.10
2023-02-03T11:44:23.715Z,7.37
2023-02-03T11:46:56.356Z,6.40
2023-02-03T11:49:54.901Z,6.33
2023-02-03T11:52:45.675Z,7.20
2023-02-03T11:55:23.744Z,5.37
2023-02-03T11:58:04.773Z,4.53
2023-02-03T12:00:40.018Z,6.27
2023-02-03T12:03:30.809Z,5.90
2023-02-03T12:06:23.991Z,6.13
2023-02-03T12:09:09.332Z,6.10
2023-02-03T12:11:56.441Z,7.47
2023-02-03T12:14:42.597Z,5.07
2023-02-03T12:17:23.417Z,4.23
2023-02-03T12:20:06.089Z,4.30
2023-02-03T12:22:45.120Z,5.80
2023-02-03T12:25:29.162Z,5.77
2023-02-03T12:28:07.024Z,4.47
2023-02-03T12:30:39.777Z,5.73
2023-02-03T12:33:15.971Z,4.30
2023-02-03T12:35:52.087Z,5.00
2023-02-03T12:38:32.560Z,6.40
2023-02-03T12:41:02.930Z,5.00
2023-02-03T12:43:38.615Z,4.83
2023-02-03T12:46:12.894Z,5.20
2023-02-03T12:48:49.268Z,4.10
2023-02-03T12:51:27.011Z,3.70
2023-02-03T12:54:02.464Z,5.13
2023-02-03T12:56:36.977Z,5.47
2023-02-03T12:59:10.440Z,4.80
2023-02-03T13:01:44.491Z,6.50
2023-02-03T13:04:18.467Z,8.50
2023-02-03T13:06:52.975Z,5.90
2023-02-03T13:09:30.874Z,4.13
2023-02-03T13:12:04.796Z,5.60
2023-02-03T13:14:36.148Z,4.90
2023-02-03T13:17:09.723Z,7.67
2023-02-03T13:19:44.311Z,5.53
2023-02-03T13:22:15.183Z,3.70
2023-02-03T13:24:50.655Z,8.13
2023-02-03T13:27:29.237Z,4.20
2023-02-03T13:30:12.190Z,5.57
2023-02-03T13:32:51.742Z,6.30
2023-02-03T13:35:34.478Z,4.97
2023-02-03T13:38:31.715Z,5.93
2023-02-03T13:41:08.835Z,3.90
2023-02-03T13:43:40.392Z,6.30
2023-02-03T13:46:14.127Z,4.83
2023-02-03T13:48:47.251Z,7.37
2023-02-03T13:51:18.903Z,3.53
2023-02-03T13:53:49.221Z,5.00
2023-02-03T13:56:23.802Z,6.70
2023-02-03T13:59:23.359Z,5.43
2023-02-03T14:01:52.727Z,3.87
2023-02-03T14:04:53.985Z,4.07
2023-02-03T14:07:35.573Z,5.23
2023-02-03T14:10:16.607Z,6.20
2023-02-03T14:13:03.782Z,5.50
2023-02-03T14:15:36.589Z,6.33
2023-02-03T14:18:35.886Z,5.70
2023-02-03T14:21:24.033Z,6.63
2023-02-03T14:23:57.680Z,6.43
2023-02-03T14:26:42.280Z,5.20
2023-02-03T14:29:28.317Z,6.43
2023-02-03T14:32:00.530Z,5.67
2023-02-03T14:34:41.738Z,4.30
2023-02-03T14:37:29.192Z,6.93
2023-02-03T14:40:26.186Z,5.50
2023-02-03T14:43:11.539Z,5.20
2023-02-03T14:46:22.696Z,6.00
2023-02-03T14:49:04.759Z,5.87
2023-02-03T14:51:49.566Z,4.60
2023-02-03T14:54:36.457Z,4.57
2023-02-03T14:57:19.939Z,5.07
2023-02-03T14:59:51.945Z,5.13
2023-02-03T15:02:25.948Z,6.27
2023-02-03T15:05:33.016Z,4.07
2023-02-03T15:08:03.441Z,6.10
2023-02-03T15:10:44.198Z,3.90
2023-02-03T15:13:27.178Z,5.63
2023-02-03T15:15:58.495Z,9.30
2023-02-03T15:18:33.037Z,4.20
2023-02-03T15:21:06.331Z,6.30
2023-02-03T15:23:43.103Z,5.87
2023-02-03T15:26:16.144Z,6.00
2023-02-03T15:28:45.691Z,3.70
2023-02-03T15:31:20.682Z,6.40
2023-02-03T15:33:50.955Z,4.60
2023-02-03T15:36:25.722Z,5.80
2023-02-03T15:39:00.628Z,5.80
2023-02-03T15:41:30.111Z,6.90
2023-02-03T15:44:01.561Z,13.13
2023-02-03T15:46:35.917Z,7.30
2023-02-03T15:49:09.878Z,11.60
2023-02-03T15:51:45.136Z,10.17
2023-02-03T15:54:18.999Z,7.93
2023-02-03T15:56:55.277Z,6.00
2023-02-03T15:59:27.491Z,7.43
2023-02-03T16:01:57.106Z,7.10
2023-02-03T16:04:27.682Z,7.13
2023-02-03T16:07:00.090Z,6.37
2023-02-03T16:09:34.576Z,5.60
2023-02-03T16:12:08.912Z,6.23
2023-02-03T16:14:39.845Z,5.10
2023-02-03T16:17:09.270Z,5.70
2023-02-03T16:19:41.261Z,5.23
2023-02-03T16:22:33.131Z,6.63
2023-02-03T16:25:15.954Z,6.17
2023-02-03T16:27:47.120Z,6.60
2023-02-03T16:30:38.565Z,6.07
2023-02-03T16:33:28.149Z,5.30
2023-02-03T16:36:10.155Z,6.63
2023-02-03T16:38:59.916Z,5.60
2023-02-03T16:41:41.869Z,6.43
2023-02-03T16:44:26.557Z,5.23
2023-02-03T16:47:08.468Z,6.17
2023-02-03T16:49:50.360Z,5.07
2023-02-03T16:52:19.781Z,6.03
2023-02-03T16:54:51.754Z,6.17
2023-02-03T16:57:21.171Z,5.90
2023-02-03T16:59:50.634Z,7.17
2023-02-03T17:02:20.118Z,4.23
2023-02-03T17:04:49.554Z,7.10
2023-02-03T17:07:19.031Z,4.60
2023-02-03T17:09:50.984Z,7.23
2023-02-03T17:12:20.367Z,7.30
2023-02-03T17:14:49.730Z,7.10
2023-02-03T17:17:19.151Z,5.87
2023-02-03T17:19:48.528Z,7.67
2023-02-03T17:22:17.967Z,5.20
2023-02-03T17:24:48.226Z,6.83
2023-02-03T17:27:20.233Z,4.80
2023-02-03T17:29:49.602Z,7.00
2023-02-03T17:32:19.054Z,9.27
2023-02-03T17:34:48.472Z,5.97
2023-02-03T17:37:18.002Z,7.57
2023-02-03T17:53:30.712Z,6.27
2023-02-03T17:56:00.762Z,7.13
2023-02-03T17:58:32.791Z,6.60
2023-02-03T18:01:02.166Z,6.70
2023-02-03T18:03:31.615Z,7.47
2023-02-03T18:06:02.979Z,6.27
2023-02-03T18:08:32.347Z,7.23
2023-02-03T18:11:03.080Z,7.10
2023-02-03T18:13:36.330Z,6.67
2023-02-03T18:16:06.019Z,6.27
2023-02-03T18:18:35.779Z,6.03
2023-02-03T18:21:06.105Z,6.27
2023-02-03T18:23:35.871Z,5.50
2023-02-03T18:26:05.534Z,6.07
2023-02-03T18:28:38.165Z,7.80
2023-02-03T18:31:09.669Z,5.20
2023-02-03T18:33:39.885Z,6.07
2023-02-03T18:36:10.461Z,5.17
2023-02-03T18:38:40.391Z,5.17
2023-02-03T18:41:11.283Z,5.77
2023-02-03T18:43:43.473Z,6.40
2023-02-03T18:46:15.930Z,7.70
2023-02-03T18:48:45.447Z,7.50
2023-02-03T18:51:17.015Z,5.33
2023-02-03T18:53:46.867Z,4.37
2023-02-03T18:56:19.190Z,4.80
2023-02-03T18:58:51.480Z,5.27
2023-02-03T19:01:28.373Z,4.23
2023-02-03T19:03:58.670Z,4.57
2023-02-03T19:06:30.402Z,4.67
2023-02-03T19:08:59.998Z,4.17
2023-02-03T19:11:29.708Z,5.83
2023-02-03T19:14:01.683Z,3.90
2023-02-03T19:16:31.161Z,4.30
2023-02-03T19:19:00.698Z,3.43
2023-02-03T19:21:30.133Z,4.37
2023-02-03T19:23:59.590Z,4.10
2023-02-03T19:26:29.809Z,5.10
2023-02-03T19:29:01.825Z,3.10
2023-02-03T19:31:31.304Z,2.80
2023-02-03T19:34:01.589Z,3.63
2023-02-03T19:36:31.561Z,2.70
2023-02-03T19:39:00.993Z,2.80
2023-02-03T19:41:30.987Z,3.60
2023-02-03T19:44:03.172Z,3.93
2023-02-03T19:46:36.949Z,2.13
2023-02-03T19:49:06.761Z,2.30
2023-02-03T19:51:36.718Z,3.10
2023-02-03T19:54:06.674Z,2.77
2023-02-03T19:56:36.173Z,2.10
2023-02-03T19:59:08.286Z,2.60
2023-02-03T20:01:38.039Z,1.97
2023-02-03T20:04:07.778Z,1.50
2023-02-03T20:06:37.505Z,2.40
2023-02-03T20:09:07.079Z,2.10
2023-02-03T20:11:36.552Z,2.10
2023-02-03T20:14:08.553Z,2.10
2023-02-03T20:16:37.967Z,2.40
2023-02-03T20:19:07.473Z,1.33
2023-02-03T20:21:37.126Z,1.53
2023-02-03T20:24:06.750Z,1.60
2023-02-03T20:26:36.235Z,2.30
2023-02-03T20:29:08.264Z,1.70
2023-02-03T20:31:37.972Z,1.43
2023-02-03T20:34:07.428Z,1.40
2023-02-03T20:36:36.905Z,1.83
2023-02-03T20:39:06.597Z,1.37
2023-02-03T20:41:36.048Z,1.80
2023-02-03T20:44:11.815Z,2.13
2023-02-03T20:46:41.244Z,1.47
2023-02-03T20:49:13.627Z,1.90
2023-02-03T20:51:43.391Z,2.23
2023-02-03T20:54:18.605Z,2.03
2023-02-03T20:56:48.338Z,1.77
2023-02-03T20:59:21.441Z,2.10
2023-02-03T21:01:50.877Z,2.03
2023-02-03T21:04:34.129Z,2.30
2023-02-03T21:07:04.227Z,1.50
2023-02-03T21:09:33.647Z,1.50
2023-02-03T21:12:03.009Z,1.40
2023-02-03T21:14:40.131Z,1.50
2023-02-03T21:17:17.799Z,1.23
2023-02-03T21:19:47.702Z,1.10
2023-02-03T21:22:20.502Z,2.17
2023-02-03T21:24:53.032Z,0.80
2023-02-03T21:27:26.984Z,1.33
2023-02-03T21:29:59.654Z,1.00
2023-02-03T21:32:36.616Z,1.20
2023-02-03T21:35:20.504Z,1.20
2023-02-03T21:37:55.822Z,1.03
2023-02-03T21:40:28.100Z,1.00
2023-02-03T21:42:58.783Z,1.20
2023-02-03T21:45:40.323Z,1.10
2023-02-03T21:48:28.899Z,2.90
2023-02-03T21:50:59.136Z,1.63
2023-02-03T21:53:32.000Z,1.87
2023-02-03T21:56:14.782Z,1.50
2023-02-03T21:58:45.280Z,1.73
2023-02-03T22:01:19.025Z,2.00
2023-02-03T22:03:50.108Z,1.90
2023-02-03T22:06:22.877Z,1.67
2023-02-03T22:08:53.931Z,1.20
2023-02-03T22:11:25.227Z,2.00
2023-02-03T22:13:54.811Z,1.60
2023-02-03T22:16:26.887Z,1.70
2023-02-03T22:18:56.286Z,1.80
2023-02-03T22:21:25.818Z,1.30
2023-02-03T22:23:55.256Z,1.50
2023-02-03T22:26:24.803Z,1.60
2023-02-03T22:28:54.338Z,1.70
2023-02-03T22:31:26.484Z,2.00
2023-02-03T22:33:55.945Z,1.70
2023-02-03T22:36:25.940Z,1.20
2023-02-03T22:38:55.367Z,1.70
2023-02-03T22:41:24.839Z,1.67
2023-02-03T22:43:54.215Z,2.40
2023-02-03T22:46:26.252Z,1.77
2023-02-03T22:48:55.663Z,1.90
2023-02-03T22:51:25.106Z,1.33
2023-02-03T22:53:54.469Z,1.13
2023-02-03T22:56:23.866Z,1.13
2023-02-03T22:58:53.298Z,1.30
2023-02-03T23:01:22.705Z,1.30
2023-02-03T23:03:54.692Z,2.07
2023-02-03T23:06:24.102Z,1.17
2023-02-03T23:08:55.421Z,1.20
2023-02-03T23:11:24.847Z,1.40
2023-02-03T23:13:54.216Z,1.27
2023-02-03T23:16:23.665Z,1.60
2023-02-03T23:18:55.612Z,2.00
2023-02-03T23:21:25.034Z,1.40
2023-02-03T23:23:54.423Z,1.60
2023-02-03T23:26:23.820Z,1.97
2023-02-03T23:28:53.239Z,1.20
2023-02-03T23:31:22.689Z,1.67
2023-02-03T23:34:07.016Z,1.40
2023-02-03T23:36:36.455Z,1.50
2023-02-03T23:39:06.362Z,0.93
2023-02-03T23:41:35.842Z,0.90
2023-02-03T23:44:05.259Z,1.63
2023-02-03T23:46:34.852Z,1.70
2023-02-03T23:49:06.918Z,1.10
2023-02-03T23:51:36.373Z,1.33
2023-02-03T23:54:06.080Z,1.20
2023-02-03T23:56:35.510Z,1.10
2023-02-03T23:59:04.933Z,1.10
